Time;durP1;ratioP1;P1;durP2;ratioP2;P2;SDS_P1;SDS_P2;PMS_P1;PMS_P2;Temp;Humidity;BMP_temperature;BMP_pressure;BME280_temperature;BME280_humidity;BME280_pressure;Samples;Min_cycle;Max_cycle;Signal;HPM_P1;HPM_P2
2023/07/06 00:01:58;;;;;;;;;;;14.80;84.30;;;;;;5072051;28;20010;-36
2023/07/06 00:04:23;;;;;;;;;;;14.80;84.30;;;;;;5072180;28;19908;-46
2023/07/06 00:06:49;;;;;;;;;;;14.80;84.30;;;;;;5072105;28;20386;-35
2023/07/06 00:09:15;;;;;;;;;;;14.80;84.20;;;;;;5072306;28;20320;-37
2023/07/06 00:11:41;;;;;;;;;;;14.90;84.20;;;;;;5072099;28;19908;-41
2023/07/06 00:14:07;;;;;;;;;;;14.90;84.20;;;;;;5072080;28;19908;-36
2023/07/06 00:16:33;;;;;;;;;;;14.90;84.20;;;;;;5071983;28;20344;-49
2023/07/06 00:18:59;;;;;;;;;;;14.90;84.20;;;;;;5072038;28;19959;-38
2023/07/06 00:21:25;;;;;;;;;;;14.90;84.20;;;;;;5071892;28;20007;-36
2023/07/06 00:23:51;;;;;;;;;;;14.90;84.20;;;;;;5071950;28;19908;-38
2023/07/06 00:26:20;;;;;;;;;;;14.90;84.20;;;;;;5071884;28;19908;-37
2023/07/06 00:28:48;;;;;;;;;;;14.90;84.20;;;;;;5071630;28;19923;-38
2023/07/06 00:31:32;;;;;;;;;;;15.00;84.30;;;;;;5071696;28;19961;-37
2023/07/06 00:34:03;;;;;;;;;;;15.00;84.30;;;;;;5071652;28;19908;-38
2023/07/06 00:36:29;;;;;;;;;;;15.00;84.30;;;;;;5071767;28;19940;-38
2023/07/06 00:38:54;;;;;;;;;;;15.00;84.30;;;;;;5071691;28;19974;-37
2023/07/06 00:41:20;;;;;;;;;;;15.00;84.30;;;;;;5071489;28;19939;-38
2023/07/06 00:43:53;;;;;;;;;;;15.00;84.30;;;;;;5053632;28;19909;-37
2023/07/06 00:46:19;;;;;;;;;;;15.10;84.30;;;;;;5071593;28;19993;-38
2023/07/06 00:48:46;;;;;;;;;;;15.00;84.30;;;;;;5071613;28;20305;-38
2023/07/06 00:51:16;;;;;;;;;;;15.10;84.30;;;;;;5071613;28;19909;-38
2023/07/06 00:53:43;;;;;;;;;;;15.10;84.30;;;;;;5071548;28;19909;-40
2023/07/06 00:56:10;;;;;;;;;;;15.10;84.30;;;;;;5066754;28;19954;-40
2023/07/06 00:58:38;;;;;;;;;;;15.10;84.30;;;;;;5071578;28;19958;-37
2023/07/06 01:01:06;;;;;;;;;;;15.10;84.30;;;;;;5071398;28;19916;-38
2023/07/06 01:03:32;;;;;;;;;;;15.10;84.30;;;;;;5072563;28;19909;-39
2023/07/06 01:06:00;;;;;;;;;;;15.10;84.40;;;;;;5076027;28;20379;-38
2023/07/06 01:08:25;;;;;;;;;;;15.10;84.40;;;;;;5075804;28;19909;-38
2023/07/06 01:10:54;;;;;;;;;;;15.10;84.50;;;;;;5075525;28;20257;-39
2023/07/06 01:13:24;;;;;;;;;;;15.00;84.50;;;;;;5075449;28;20436;-39
2023/07/06 01:15:56;;;;;;;;;;;15.00;84.50;;;;;;5075355;28;19912;-36
2023/07/06 01:18:45;;;;;;;;;;;15.10;84.60;;;;;;5075254;28;20281;-38
2023/07/06 01:21:14;;;;;;;;;;;15.00;84.60;;;;;;5046162;28;19913;-37
2023/07/06 01:23:58;;;;;;;;;;;15.00;84.70;;;;;;5075482;28;19917;-38
2023/07/06 01:26:36;;;;;;;;;;;15.00;84.80;;;;;;5075099;28;19913;-40
2023/07/06 01:29:33;;;;;;;;;;;14.90;84.80;;;;;;5074856;28;19960;-40
2023/07/06 01:32:05;;;;;;;;;;;14.90;84.90;;;;;;5040782;28;19959;-35
2023/07/06 01:34:41;;;;;;;;;;;14.80;84.90;;;;;;5074865;28;20314;-35
2023/07/06 01:37:15;;;;;;;;;;;14.80;85.10;;;;;;5074962;28;19915;-37
2023/07/06 01:39:41;;;;;;;;;;;14.80;85.10;;;;;;5074792;28;19909;-37
2023/07/06 01:42:09;;;;;;;;;;;14.80;85.20;;;;;;5074670;28;19922;-37
2023/07/06 01:44:43;;;;;;;;;;;14.70;85.20;;;;;;5074598;28;19916;-42
2023/07/06 01:47:09;;;;;;;;;;;14.70;85.30;;;;;;5074633;28;19913;-36
2023/07/06 01:49:35;;;;;;;;;;;14.70;85.30;;;;;;5074741;28;19999;-39
2023/07/06 01:52:36;;;;;;;;;;;14.70;85.40;;;;;;5074649;28;19915;-36
2023/07/06 01:55:08;;;;;;;;;;;14.70;85.40;;;;;;5012227;28;20293;-40
2023/07/06 01:57:36;;;;;;;;;;;14.60;85.40;;;;;;5064611;28;19995;-42
2023/07/06 02:00:05;;;;;;;;;;;14.60;85.50;;;;;;5074372;28;19962;-37
2023/07/06 02:02:32;;;;;;;;;;;14.60;85.50;;;;;;5074170;28;19920;-37
2023/07/06 02:05:02;;;;;;;;;;;14.60;85.50;;;;;;5074468;28;19908;-39
2023/07/06 02:07:27;;;;;;;;;;;14.60;85.50;;;;;;5074386;28;19915;-37
2023/07/06 02:09:54;;;;;;;;;;;14.60;85.50;;;;;;5056059;28;20332;-37
2023/07/06 02:12:20;;;;;;;;;;;14.60;85.50;;;;;;5074235;28;19908;-35
2023/07/06 02:14:48;;;;;;;;;;;14.60;85.50;;;;;;5073403;28;19908;-38
2023/07/06 02:17:15;;;;;;;;;;;14.60;85.60;;;;;;5073925;28;19916;-38
2023/07/06 02:19:42;;;;;;;;;;;14.60;85.60;;;;;;5074089;28;19916;-37
2023/07/06 02:22:08;;;;;;;;;;;14.60;85.60;;;;;;5074234;28;19912;-38
2023/07/06 02:24:33;;;;;;;;;;;14.60;85.50;;;;;;5074057;28;20265;-38
2023/07/06 02:26:59;;;;;;;;;;;14.70;85.50;;;;;;5073921;28;19959;-38
2023/07/06 02:29:25;;;;;;;;;;;14.70;85.50;;;;;;5073782;28;20447;-37
2023/07/06 02:31:50;;;;;;;;;;;14.70;85.40;;;;;;5073777;28;19915;-37
2023/07/06 02:34:24;;;;;;;;;;;14.70;85.40;;;;;;5073825;28;20352;-36
2023/07/06 02:36:50;;;;;;;;;;;14.80;85.40;;;;;;5074028;28;20322;-33
2023/07/06 02:39:16;;;;;;;;;;;14.80;85.40;;;;;;5073798;28;19916;-38
2023/07/06 02:41:41;;;;;;;;;;;14.80;85.30;;;;;;5073775;28;20372;-36
2023/07/06 02:44:07;;;;;;;;;;;14.80;85.30;;;;;;5073611;28;19970;-37
2023/07/06 02:46:32;;;;;;;;;;;14.80;85.30;;;;;;5073637;28;20201;-37
2023/07/06 02:48:57;;;;;;;;;;;14.80;85.30;;;;;;5073622;28;19916;-38
2023/07/06 02:51:23;;;;;;;;;;;14.90;85.40;;;;;;5073537;28;19961;-36
2023/07/06 02:53:48;;;;;;;;;;;14.80;85.30;;;;;;5073725;28;19978;-38
2023/07/06 02:56:14;;;;;;;;;;;14.80;85.30;;;;;;5073442;28;20417;-38
2023/07/06 02:58:39;;;;;;;;;;;14.80;85.30;;;;;;5073362;28;19957;-38
2023/07/06 03:01:05;;;;;;;;;;;14.80;85.30;;;;;;5073600;28;19919;-35
2023/07/06 03:03:30;;;;;;;;;;;14.80;85.30;;;;;;5073558;28;19962;-39
2023/07/06 03:05:56;;;;;;;;;;;14.90;85.40;;;;;;5073413;28;19914;-35
2023/07/06 03:08:21;;;;;;;;;;;14.80;85.30;;;;;;5073658;28;19912;-37
2023/07/06 03:10:47;;;;;;;;;;;14.80;85.30;;;;;;5055327;28;20360;-37
2023/07/06 03:13:13;;;;;;;;;;;14.80;85.30;;;;;;5055171;28;19914;-37
2023/07/06 03:15:40;;;;;;;;;;;14.80;85.30;;;;;;5073215;28;19908;-39
2023/07/06 03:18:06;;;;;;;;;;;14.80;85.30;;;;;;5073075;28;20249;-38
2023/07/06 03:20:36;;;;;;;;;;;14.80;85.30;;;;;;5073444;28;19913;-37
2023/07/06 03:23:02;;;;;;;;;;;14.80;85.30;;;;;;5073217;28;19916;-37
2023/07/06 03:25:27;;;;;;;;;;;14.80;85.40;;;;;;5073230;28;19916;-38
2023/07/06 03:27:54;;;;;;;;;;;14.80;85.40;;;;;;5072541;28;19908;-39
2023/07/06 03:30:21;;;;;;;;;;;14.80;85.40;;;;;;5072739;28;20397;-38
2023/07/06 03:32:46;;;;;;;;;;;14.70;85.30;;;;;;5072597;28;19908;-37
2023/07/06 03:35:13;;;;;;;;;;;14.80;85.40;;;;;;5072875;28;19908;-37
2023/07/06 03:37:39;;;;;;;;;;;14.70;85.30;;;;;;5072744;28;19912;-40
2023/07/06 03:40:05;;;;;;;;;;;14.70;85.40;;;;;;5072644;28;19909;-39
2023/07/06 03:42:31;;;;;;;;;;;14.70;85.40;;;;;;5072629;28;19917;-38
2023/07/06 03:44:57;;;;;;;;;;;14.70;85.40;;;;;;5072432;28;20465;-38
2023/07/06 03:47:23;;;;;;;;;;;14.80;85.40;;;;;;5072457;28;19908;-36
2023/07/06 03:49:49;;;;;;;;;;;14.70;85.40;;;;;;5072331;28;19917;-38
2023/07/06 03:52:17;;;;;;;;;;;14.70;85.30;;;;;;5072644;28;19909;-36
2023/07/06 03:54:42;;;;;;;;;;;14.70;85.30;;;;;;5072536;28;20347;-39
2023/07/06 03:57:07;;;;;;;;;;;14.70;85.30;;;;;;5054193;28;19969;-36
2023/07/06 03:59:33;;;;;;;;;;;14.70;85.40;;;;;;5072454;28;19909;-36
2023/07/06 04:01:59;;;;;;;;;;;14.70;85.40;;;;;;5072057;28;19912;-37
2023/07/06 04:04:28;;;;;;;;;;;14.70;85.30;;;;;;5072414;28;19909;-37
2023/07/06 04:06:56;;;;;;;;;;;14.70;85.30;;;;;;5072132;28;19908;-38
2023/07/06 04:09:25;;;;;;;;;;;14.70;85.30;;;;;;5072030;28;19931;-38
2023/07/06 04:11:52;;;;;;;;;;;14.70;85.30;;;;;;5071739;28;19951;-37
2023/07/06 04:14:21;;;;;;;;;;;14.70;85.30;;;;;;5054015;28;20378;-37
2023/07/06 04:16:47;;;;;;;;;;;14.70;85.20;;;;;;5071781;28;19920;-35
2023/07/06 04:19:12;;;;;;;;;;;14.70;85.30;;;;;;5071768;28;20324;-37
2023/07/06 04:21:38;;;;;;;;;;;14.70;85.20;;;;;;5071809;28;19921;-37
2023/07/06 04:24:04;;;;;;;;;;;14.70;85.20;;;;;;5071919;28;19987;-38
2023/07/06 04:26:29;;;;;;;;;;;14.70;85.20;;;;;;5071849;28;19974;-38
2023/07/06 04:28:55;;;;;;;;;;;14.70;85.20;;;;;;5071414;28;19916;-36
2023/07/06 04:31:20;;;;;;;;;;;14.80;85.20;;;;;;5071664;28;19909;-37
2023/07/06 04:33:46;;;;;;;;;;;14.80;85.10;;;;;;5071623;28;19909;-36
2023/07/06 04:36:11;;;;;;;;;;;14.80;85.00;;;;;;5071658;28;19909;-37
2023/07/06 04:38:37;;;;;;;;;;;14.90;85.10;;;;;;5052841;28;20336;-38
2023/07/06 04:41:02;;;;;;;;;;;14.90;85.00;;;;;;5071702;28;19924;-38
2023/07/06 04:43:28;;;;;;;;;;;14.90;85.00;;;;;;5071556;28;19909;-37
2023/07/06 04:45:55;;;;;;;;;;;14.90;85.00;;;;;;5071651;28;19999;-39
2023/07/06 04:48:21;;;;;;;;;;;14.90;85.00;;;;;;5071720;28;20366;-38
2023/07/06 04:50:49;;;;;;;;;;;14.90;84.90;;;;;;5071528;28;20245;-37
2023/07/06 04:53:16;;;;;;;;;;;14.90;84.90;;;;;;5071485;28;19909;-36
2023/07/06 04:55:41;;;;;;;;;;;14.90;84.80;;;;;;5071667;28;20287;-37
2023/07/06 04:58:08;;;;;;;;;;;15.00;84.90;;;;;;5071474;28;19908;-38
2023/07/06 05:00:36;;;;;;;;;;;15.00;84.80;;;;;;5071313;28;19908;-39
2023/07/06 05:03:03;;;;;;;;;;;15.00;84.80;;;;;;5071357;28;20007;-37
2023/07/06 05:05:31;;;;;;;;;;;15.00;84.70;;;;;;5071464;28;20360;-36
2023/07/06 05:07:57;;;;;;;;;;;15.00;84.70;;;;;;5071573;28;19999;-40
2023/07/06 05:10:23;;;;;;;;;;;15.00;84.70;;;;;;5071337;28;20420;-38
2023/07/06 05:12:48;;;;;;;;;;;15.00;84.70;;;;;;5071310;28;19912;-37
2023/07/06 05:15:14;;;;;;;;;;;15.00;84.70;;;;;;5053301;28;20288;-37
2023/07/06 05:17:40;;;;;;;;;;;15.00;84.70;;;;;;5071654;28;20336;-37
2023/07/06 05:20:06;;;;;;;;;;;15.10;84.70;;;;;;5071438;28;20243;-38
2023/07/06 05:22:35;;;;;;;;;;;15.10;84.60;;;;;;5071538;28;19919;-38
2023/07/06 05:25:01;;;;;;;;;;;15.10;84.60;;;;;;5071202;28;19934;-37
2023/07/06 05:27:26;;;;;;;;;;;15.10;84.70;;;;;;5071320;28;19915;-37
2023/07/06 05:29:52;;;;;;;;;;;15.10;84.60;;;;;;5071182;28;19916;-36
2023/07/06 05:32:17;;;;;;;;;;;15.10;84.60;;;;;;5071305;28;20022;-38
2023/07/06 05:34:43;;;;;;;;;;;15.10;84.50;;;;;;5071381;28;19908;-39
2023/07/06 05:37:08;;;;;;;;;;;15.20;84.50;;;;;;5071071;28;20002;-37
2023/07/06 05:39:33;;;;;;;;;;;15.20;84.40;;;;;;5071124;28;19961;-37
2023/07/06 05:42:01;;;;;;;;;;;15.30;84.40;;;;;;5070398;28;20364;-38
2023/07/06 05:44:26;;;;;;;;;;;15.30;84.30;;;;;;5071065;28;19962;-37
2023/07/06 05:46:52;;;;;;;;;;;15.40;84.30;;;;;;5070939;28;19909;-37
2023/07/06 05:49:17;;;;;;;;;;;15.50;84.30;;;;;;5071640;28;20313;-39
2023/07/06 05:51:43;;;;;;;;;;;15.60;84.20;;;;;;5074682;28;20280;-37
2023/07/06 05:54:08;;;;;;;;;;;15.60;84.00;;;;;;5074541;28;19916;-38
2023/07/06 05:56:35;;;;;;;;;;;15.70;84.70;;;;;;5074913;28;19999;-37
2023/07/06 05:59:01;;;;;;;;;;;15.70;84.00;;;;;;5074456;28;19909;-38
2023/07/06 06:01:29;;;;;;;;;;;15.80;84.00;;;;;;5074616;28;20347;-38
2023/07/06 06:03:55;;;;;;;;;;;15.80;83.90;;;;;;5074325;28;19908;-37
2023/07/06 06:06:21;;;;;;;;;;;15.80;83.90;;;;;;5074624;28;19912;-36
2023/07/06 06:08:47;;;;;;;;;;;15.80;83.80;;;;;;5074453;28;19915;-39
2023/07/06 06:11:15;;;;;;;;;;;15.80;83.80;;;;;;5074459;28;20311;-37
2023/07/06 06:13:40;;;;;;;;;;;15.90;84.40;;;;;;5074342;28;19908;-35
2023/07/06 06:16:08;;;;;;;;;;;15.90;83.80;;;;;;5074418;28;20383;-37
2023/07/06 06:18:34;;;;;;;;;;;15.90;83.70;;;;;;5074261;28;19931;-37
2023/07/06 06:20:59;;;;;;;;;;;15.90;84.30;;;;;;5056247;28;19924;-35
2023/07/06 06:23:25;;;;;;;;;;;16.00;83.80;;;;;;5074259;28;20341;-37
2023/07/06 06:25:51;;;;;;;;;;;16.10;83.70;;;;;;5074309;28;19908;-37
2023/07/06 06:28:16;;;;;;;;;;;16.10;83.60;;;;;;5073985;28;19913;-37
2023/07/06 06:30:42;;;;;;;;;;;16.20;83.60;;;;;;5074103;28;19913;-37
2023/07/06 06:33:08;;;;;;;;;;;16.30;83.40;;;;;;5074015;28;19917;-39
2023/07/06 06:35:33;;;;;;;;;;;16.40;83.40;;;;;;5074154;28;19995;-37
2023/07/06 06:38:03;;;;;;;;;;;16.50;83.20;;;;;;5074225;28;19920;-38
2023/07/06 06:40:29;;;;;;;;;;;16.50;83.10;;;;;;5074215;28;19913;-38
2023/07/06 06:42:54;;;;;;;;;;;16.60;83.10;;;;;;5073735;28;19912;-38
2023/07/06 06:45:21;;;;;;;;;;;16.60;83.00;;;;;;5073740;28;20272;-37
2023/07/06 06:47:46;;;;;;;;;;;16.70;82.90;;;;;;5073750;28;20007;-39
2023/07/06 06:50:16;;;;;;;;;;;16.80;82.90;;;;;;5073564;28;20411;-36
2023/07/06 06:52:43;;;;;;;;;;;16.80;82.70;;;;;;5073560;28;19913;-36
2023/07/06 06:55:08;;;;;;;;;;;16.90;82.70;;;;;;5073679;28;19913;-38
2023/07/06 06:57:34;;;;;;;;;;;16.90;82.60;;;;;;5073418;28;19923;-36
2023/07/06 06:59:59;;;;;;;;;;;17.00;82.60;;;;;;5073713;28;19965;-38
2023/07/06 07:02:25;;;;;;;;;;;17.00;82.50;;;;;;5072447;28;19917;-37
2023/07/06 07:04:51;;;;;;;;;;;17.00;82.50;;;;;;5072977;28;19998;-37
2023/07/06 07:07:17;;;;;;;;;;;17.10;82.50;;;;;;5072112;28;20309;-37
2023/07/06 07:09:44;;;;;;;;;;;17.10;82.30;;;;;;5071764;28;20248;-37
2023/07/06 07:12:10;;;;;;;;;;;17.20;82.30;;;;;;5072310;28;20330;-39
2023/07/06 07:14:37;;;;;;;;;;;17.30;82.30;;;;;;5073191;28;19959;-37
2023/07/06 07:17:03;;;;;;;;;;;17.30;82.10;;;;;;5072859;28;19912;-37
2023/07/06 07:19:29;;;;;;;;;;;17.30;82.10;;;;;;5073041;28;20074;-38
2023/07/06 07:21:55;;;;;;;;;;;17.40;82.10;;;;;;5073093;28;19977;-37
2023/07/06 07:24:20;;;;;;;;;;;17.50;81.90;;;;;;5072894;28;19919;-39
2023/07/06 07:26:48;;;;;;;;;;;17.60;81.80;;;;;;5073099;28;19916;-36
2023/07/06 07:29:14;;;;;;;;;;;17.70;81.70;;;;;;5072763;28;19916;-43
2023/07/06 07:31:41;;;;;;;;;;;17.60;81.60;;;;;;5072885;28;20295;-38
2023/07/06 07:34:07;;;;;;;;;;;17.60;81.70;;;;;;5072905;28;19913;-38
2023/07/06 07:36:32;;;;;;;;;;;17.70;81.70;;;;;;5072870;28;19919;-37
2023/07/06 07:38:58;;;;;;;;;;;17.80;81.60;;;;;;5072513;28;19919;-36
2023/07/06 07:41:24;;;;;;;;;;;17.80;81.40;;;;;;5072682;28;19928;-37
2023/07/06 07:43:49;;;;;;;;;;;17.90;81.30;;;;;;5072609;28;19916;-37
2023/07/06 07:46:16;;;;;;;;;;;17.80;81.30;;;;;;5072649;28;19923;-38
2023/07/06 07:48:45;;;;;;;;;;;17.80;81.30;;;;;;5072695;28;20332;-38
2023/07/06 07:51:11;;;;;;;;;;;17.80;81.40;;;;;;5072580;28;20344;-39
2023/07/06 07:53:37;;;;;;;;;;;17.90;81.40;;;;;;5072472;28;19920;-37
2023/07/06 07:56:06;;;;;;;;;;;17.90;81.20;;;;;;5072546;28;19913;-38
2023/07/06 07:58:33;;;;;;;;;;;18.00;81.10;;;;;;5072528;28;20011;-37
2023/07/06 08:01:00;;;;;;;;;;;18.10;81.00;;;;;;5072597;28;20400;-36
2023/07/06 08:03:27;;;;;;;;;;;18.20;80.80;;;;;;5072500;28;20356;-35
2023/07/06 08:05:56;;;;;;;;;;;18.20;80.60;;;;;;5054505;28;19913;-37
2023/07/06 08:08:23;;;;;;;;;;;18.40;80.50;;;;;;5072569;28;20265;-37
2023/07/06 08:10:49;;;;;;;;;;;18.50;80.40;;;;;;5072237;28;20221;-36
2023/07/06 08:13:15;;;;;;;;;;;18.60;80.30;;;;;;5072322;28;20379;-38
2023/07/06 08:15:41;;;;;;;;;;;18.60;80.00;;;;;;5071955;28;20000;-36
2023/07/06 08:18:06;;;;;;;;;;;18.70;79.90;;;;;;5072169;28;20481;-37
2023/07/06 08:20:33;;;;;;;;;;;18.80;79.70;;;;;;5072143;28;20364;-38
2023/07/06 08:23:00;;;;;;;;;;;18.90;79.70;;;;;;5072118;28;19919;-37
2023/07/06 08:25:27;;;;;;;;;;;19.00;79.50;;;;;;5053740;28;19991;-37
2023/07/06 08:27:53;;;;;;;;;;;19.00;79.40;;;;;;5037527;28;19912;-37
2023/07/06 08:30:21;;;;;;;;;;;19.10;79.10;;;;;;5072048;28;19912;-34
2023/07/06 08:32:48;;;;;;;;;;;19.10;78.90;;;;;;5072259;28;19912;-38
2023/07/06 08:35:15;;;;;;;;;;;19.20;78.90;;;;;;5071287;28;19912;-37
2023/07/06 08:37:40;;;;;;;;;;;19.20;78.80;;;;;;5071357;28;19919;-37
2023/07/06 08:40:07;;;;;;;;;;;19.30;78.40;;;;;;5072185;28;19912;-39
2023/07/06 08:42:32;;;;;;;;;;;19.20;77.80;;;;;;5071755;28;19965;-37
2023/07/06 08:44:58;;;;;;;;;;;19.20;78.10;;;;;;5071720;28;19913;-38
2023/07/06 08:47:26;;;;;;;;;;;19.30;78.20;;;;;;5071858;28;19912;-37
2023/07/06 08:49:52;;;;;;;;;;;19.40;78.10;;;;;;5071830;28;19923;-37
2023/07/06 08:52:19;;;;;;;;;;;19.50;77.80;;;;;;5071741;28;19913;-37
2023/07/06 08:54:47;;;;;;;;;;;19.60;77.70;;;;;;5071709;28;19958;-37
2023/07/06 08:57:15;;;;;;;;;;;19.50;77.50;;;;;;5071913;28;20109;-39
2023/07/06 08:59:45;;;;;;;;;;;19.40;76.90;;;;;;5071882;28;19912;-36
2023/07/06 09:02:21;;;;;;;;;;;19.30;77.00;;;;;;5053412;28;19916;-37
2023/07/06 09:04:47;;;;;;;;;;;19.30;77.20;;;;;;5071825;28;19913;-45
2023/07/06 09:07:17;;;;;;;;;;;19.50;77.20;;;;;;5071782;28;19912;-37
2023/07/06 09:09:44;;;;;;;;;;;19.50;76.90;;;;;;5071954;28;19912;-37
2023/07/06 09:12:13;;;;;;;;;;;19.60;76.70;;;;;;5071827;28;19916;-39
2023/07/06 09:14:41;;;;;;;;;;;19.60;76.70;;;;;;5071910;28;19920;-38
2023/07/06 09:17:07;;;;;;;;;;;19.70;76.50;;;;;;5053406;28;19958;-37
2023/07/06 09:19:33;;;;;;;;;;;19.80;75.90;;;;;;5071703;28;20326;-35
2023/07/06 09:22:00;;;;;;;;;;;19.80;76.00;;;;;;5071499;28;19940;-38
2023/07/06 09:24:27;;;;;;;;;;;19.80;75.90;;;;;;5072747;28;19913;-38
2023/07/06 09:26:53;;;;;;;;;;;19.90;75.90;;;;;;5075641;28;19999;-38
2023/07/06 09:29:25;;;;;;;;;;;20.00;75.80;;;;;;5075453;28;20011;-38
2023/07/06 09:32:07;;;;;;;;;;;20.10;75.50;;;;;;5075484;28;19920;-38
2023/07/06 09:34:33;;;;;;;;;;;20.10;75.00;;;;;;5075409;28;20035;-36
2023/07/06 09:37:02;;;;;;;;;;;20.10;75.10;;;;;;5075538;28;19948;-38
2023/07/06 09:39:27;;;;;;;;;;;20.10;74.90;;;;;;5075305;28;19912;-37
2023/07/06 09:41:53;;;;;;;;;;;20.10;75.10;;;;;;5057174;28;19928;-36
2023/07/06 09:44:26;;;;;;;;;;;20.20;75.20;;;;;;5075565;28;20072;-38
2023/07/06 09:46:51;;;;;;;;;;;20.30;75.00;;;;;;5075145;28;19912;-37
2023/07/06 09:49:18;;;;;;;;;;;20.40;74.90;;;;;;5075196;28;19920;-36
2023/07/06 09:51:56;;;;;;;;;;;20.40;74.60;;;;;;5075017;28;20373;-37
2023/07/06 09:54:38;;;;;;;;;;;20.40;74.50;;;;;;5056937;28;19935;-37
2023/07/06 09:57:11;;;;;;;;;;;20.40;74.50;;;;;;5075014;28;19912;-38
2023/07/06 09:59:42;;;;;;;;;;;20.40;74.50;;;;;;5074810;28;19912;-37
2023/07/06 10:02:14;;;;;;;;;;;20.50;74.40;;;;;;5074781;28;20334;-38
2023/07/06 10:04:39;;;;;;;;;;;20.50;73.80;;;;;;5074709;28;19923;-37
2023/07/06 10:07:06;;;;;;;;;;;20.50;73.30;;;;;;5075094;28;19995;-40
2023/07/06 10:09:39;;;;;;;;;;;20.50;73.50;;;;;;5074736;28;19920;-38
2023/07/06 10:12:14;;;;;;;;;;;20.50;73.40;;;;;;5074884;28;19913;-42
2023/07/06 10:14:49;;;;;;;;;;;20.60;73.20;;;;;;5074663;28;20391;-38
2023/07/06 10:17:30;;;;;;;;;;;20.60;72.90;;;;;;5075018;28;19966;-39
2023/07/06 10:20:00;;;;;;;;;;;20.60;72.90;;;;;;5074698;28;20232;-43
2023/07/06 10:22:31;;;;;;;;;;;20.60;72.30;;;;;;5074459;28;19920;-42
2023/07/06 10:25:06;;;;;;;;;;;20.60;72.00;;;;;;5074440;28;19983;-42
2023/07/06 10:27:35;;;;;;;;;;;20.60;71.00;;;;;;5074399;28;19939;-37
2023/07/06 10:30:05;;;;;;;;;;;20.60;71.80;;;;;;5074166;28;19943;-36
2023/07/06 10:32:41;;;;;;;;;;;20.60;71.80;;;;;;5074266;28;19913;-37
2023/07/06 10:35:10;;;;;;;;;;;20.60;71.90;;;;;;5074072;28;19962;-37
2023/07/06 10:37:37;;;;;;;;;;;20.70;71.20;;;;;;5073117;28;19913;-38
2023/07/06 10:40:11;;;;;;;;;;;20.80;71.20;;;;;;5074078;28;19916;-47
2023/07/06 10:42:41;;;;;;;;;;;20.90;71.30;;;;;;5074009;28;19920;-37
2023/07/06 10:45:20;;;;;;;;;;;21.00;71.20;;;;;;5073935;28;19924;-38
2023/07/06 10:47:48;;;;;;;;;;;21.10;70.70;;;;;;5074097;28;19913;-38
2023/07/06 10:50:19;;;;;;;;;;;21.10;70.80;;;;;;5073981;28;19919;-37
2023/07/06 10:52:52;;;;;;;;;;;21.20;70.80;;;;;;5073850;28;19912;-39
2023/07/06 10:55:18;;;;;;;;;;;21.30;70.40;;;;;;5073947;28;19912;-39
2023/07/06 10:57:49;;;;;;;;;;;21.20;70.30;;;;;;5073715;28;19928;-38
2023/07/06 11:00:16;;;;;;;;;;;21.20;70.40;;;;;;5055990;28;19916;-38
2023/07/06 11:02:43;;;;;;;;;;;21.20;69.80;;;;;;5073507;28;19916;-36
2023/07/06 11:05:08;;;;;;;;;;;21.10;70.00;;;;;;5073699;28;19912;-37
2023/07/06 11:07:38;;;;;;;;;;;21.20;70.00;;;;;;5073650;28;19919;-37
2023/07/06 11:10:21;;;;;;;;;;;21.30;69.50;;;;;;5073649;28;20011;-37
2023/07/06 11:12:53;;;;;;;;;;;21.40;69.30;;;;;;5073691;28;20281;-36
2023/07/06 11:15:23;;;;;;;;;;;21.40;68.80;;;;;;5073612;28;19961;-39
2023/07/06 11:17:50;;;;;;;;;;;21.40;68.80;;;;;;5073989;28;19913;-38
2023/07/06 11:20:23;;;;;;;;;;;21.50;68.90;;;;;;5073675;28;19995;-38
2023/07/06 11:22:53;;;;;;;;;;;21.60;67.50;;;;;;5073281;28;20425;-38
2023/07/06 11:25:19;;;;;;;;;;;21.60;67.50;;;;;;5073526;28;19913;-38
2023/07/06 11:27:48;;;;;;;;;;;21.70;67.70;;;;;;5073272;28;20011;-38
2023/07/06 11:30:15;;;;;;;;;;;21.80;67.40;;;;;;5072810;28;19943;-38
2023/07/06 11:32:51;;;;;;;;;;;22.00;67.50;;;;;;5073022;28;19919;-37
2023/07/06 11:35:26;;;;;;;;;;;22.20;67.60;;;;;;5073297;28;20379;-38
2023/07/06 11:38:12;;;;;;;;;;;22.30;67.30;;;;;;5072916;28;19912;-38
2023/07/06 11:40:38;;;;;;;;;;;22.40;67.10;;;;;;5072757;28;20027;-42
2023/07/06 11:43:03;;;;;;;;;;;22.50;65.50;;;;;;5072906;28;19948;-38
2023/07/06 11:45:30;;;;;;;;;;;22.50;65.70;;;;;;5072708;28;19916;-40
2023/07/06 11:48:01;;;;;;;;;;;22.50;64.70;;;;;;5054483;28;20010;-38
2023/07/06 11:50:33;;;;;;;;;;;22.50;64.80;;;;;;5072715;28;19912;-40
2023/07/06 11:53:09;;;;;;;;;;;22.50;65.00;;;;;;5072678;28;19913;-39
2023/07/06 11:55:50;;;;;;;;;;;22.60;64.80;;;;;;5072771;28;20323;-38
2023/07/06 11:58:42;;;;;;;;;;;22.60;62.90;;;;;;5072570;28;20408;-36
2023/07/06 12:01:20;;;;;;;;;;;22.50;63.00;;;;;;5072605;28;19924;-38
2023/07/06 12:03:47;;;;;;;;;;;22.50;63.80;;;;;;5072510;28;20007;-37
2023/07/06 12:06:17;;;;;;;;;;;22.60;64.00;;;;;;5072506;28;19912;-39
2023/07/06 12:08:44;;;;;;;;;;;22.80;63.90;;;;;;5072498;28;19913;-44
2023/07/06 12:11:15;;;;;;;;;;;22.90;63.80;;;;;;5072361;28;20025;-39
2023/07/06 12:13:41;;;;;;;;;;;22.90;63.10;;;;;;5072241;28;19916;-37
2023/07/06 12:16:38;;;;;;;;;;;22.90;62.40;;;;;;5072236;28;20265;-37
2023/07/06 12:19:12;;;;;;;;;;;22.80;63.20;;;;;;5059574;28;20474;-39
2023/07/06 12:22:03;;;;;;;;;;;22.60;62.70;;;;;;5071952;28;19920;-37
2023/07/06 12:24:29;;;;;;;;;;;22.50;61.80;;;;;;5068826;28;19920;-38
2023/07/06 12:26:57;;;;;;;;;;;22.30;62.70;;;;;;5054143;28;20284;-38
2023/07/06 12:29:27;;;;;;;;;;;22.20;62.90;;;;;;5071944;28;19924;-35
2023/07/06 12:31:53;;;;;;;;;;;22.00;63.20;;;;;;5072026;28;19912;-37
2023/07/06 12:34:20;;;;;;;;;;;21.90;62.80;;;;;;5072072;28;19912;-37
2023/07/06 12:36:49;;;;;;;;;;;21.80;63.20;;;;;;5071906;28;19913;-36
2023/07/06 12:39:19;;;;;;;;;;;21.70;63.40;;;;;;5071858;28;20428;-36
2023/07/06 12:41:45;;;;;;;;;;;21.70;63.10;;;;;;5071782;28;19970;-36
2023/07/06 12:44:14;;;;;;;;;;;21.70;63.40;;;;;;5071719;28;19917;-37
2023/07/06 12:46:41;;;;;;;;;;;21.60;62.90;;;;;;5071796;28;19916;-38
2023/07/06 12:49:16;;;;;;;;;;;21.50;63.50;;;;;;5071724;28;19920;-37
2023/07/06 12:51:42;;;;;;;;;;;21.50;63.80;;;;;;5071561;28;20295;-39
2023/07/06 12:54:09;;;;;;;;;;;21.40;63.50;;;;;;5071738;28;19920;-36
2023/07/06 12:56:37;;;;;;;;;;;21.30;62.20;;;;;;5053755;28;19962;-38
2023/07/06 12:59:03;;;;;;;;;;;21.10;63.40;;;;;;5070840;28;19912;-39
2023/07/06 13:01:36;;;;;;;;;;;20.90;63.90;;;;;;5071635;28;20283;-37
2023/07/06 13:04:11;;;;;;;;;;;20.80;64.30;;;;;;5071689;28;19912;-38
2023/07/06 13:06:48;;;;;;;;;;;20.70;64.90;;;;;;5071717;28;19913;-38
2023/07/06 13:09:20;;;;;;;;;;;20.50;65.40;;;;;;5071659;28;19974;-38
2023/07/06 13:11:47;;;;;;;;;;;20.50;65.90;;;;;;5071663;28;19912;-39
2023/07/06 13:14:15;;;;;;;;;;;20.40;66.10;;;;;;5071538;28;19951;-38
2023/07/06 13:16:41;;;;;;;;;;;20.40;66.40;;;;;;5071486;28;20002;-37
2023/07/06 13:19:10;;;;;;;;;;;20.50;66.50;;;;;;5071886;28;20263;-39
2023/07/06 13:21:37;;;;;;;;;;;20.60;66.50;;;;;;5071819;28;19916;-38
2023/07/06 13:24:03;;;;;;;;;;;20.80;66.40;;;;;;5071893;28;19913;-33
2023/07/06 13:26:29;;;;;;;;;;;21.10;66.10;;;;;;5071381;28;19924;-36
2023/07/06 13:28:58;;;;;;;;;;;21.60;65.70;;;;;;5071328;28;19917;-39
2023/07/06 13:31:26;;;;;;;;;;;22.00;65.20;;;;;;5071327;28;19920;-38
2023/07/06 13:33:51;;;;;;;;;;;22.40;64.70;;;;;;5071371;28;19919;-38
2023/07/06 13:36:18;;;;;;;;;;;22.60;64.20;;;;;;5071540;28;20439;-38
2023/07/06 13:38:44;;;;;;;;;;;22.80;63.10;;;;;;5071193;28;20322;-37
2023/07/06 13:41:12;;;;;;;;;;;22.80;63.10;;;;;;5071182;28;19924;-38
2023/07/06 13:43:38;;;;;;;;;;;22.90;63.30;;;;;;5071421;28;20379;-38
2023/07/06 13:46:04;;;;;;;;;;;23.00;62.70;;;;;;5071373;28;19913;-37
2023/07/06 13:48:29;;;;;;;;;;;23.20;62.30;;;;;;5053203;28;19924;-38
2023/07/06 13:50:55;;;;;;;;;;;23.30;62.30;;;;;;5071029;28;20363;-37
2023/07/06 13:53:20;;;;;;;;;;;23.40;61.70;;;;;;5071465;28;19955;-37
2023/07/06 13:55:52;;;;;;;;;;;23.50;61.60;;;;;;5071217;28;19917;-38
2023/07/06 13:58:19;;;;;;;;;;;23.60;60.80;;;;;;5071162;28;20352;-39
2023/07/06 14:00:47;;;;;;;;;;;23.80;60.40;;;;;;5071087;28;19919;-37
2023/07/06 14:03:17;;;;;;;;;;;23.90;60.10;;;;;;5071149;28;19948;-39
2023/07/06 14:05:43;;;;;;;;;;;24.10;57.90;;;;;;5071050;28;20003;-36
2023/07/06 14:08:09;;;;;;;;;;;24.20;57.40;;;;;;5071114;28;19960;-39
2023/07/06 14:10:35;;;;;;;;;;;24.20;56.60;;;;;;5072023;28;19919;-37
2023/07/06 14:13:00;;;;;;;;;;;24.30;56.60;;;;;;5074556;28;19920;-37
2023/07/06 14:15:26;;;;;;;;;;;24.30;55.80;;;;;;5074634;28;19943;-38
2023/07/06 14:17:52;;;;;;;;;;;24.40;56.60;;;;;;5074507;28;19912;-36
2023/07/06 14:20:18;;;;;;;;;;;24.60;56.80;;;;;;5074611;28;19913;-38
2023/07/06 14:22:43;;;;;;;;;;;24.80;55.10;;;;;;5056277;28;20010;-36